x

Sabine Pass, Tx (srst2) Weather Station

10:00am - Mon 5th Dec 2016 All times are CST. -6 hours from GMT.

  • Wind
    16mph, 20mph gusts
  • Air Temp 51°f
  • Sea Pressure 1010.3mb
  • Sabine Pass, Tx
  • Sabine Pass, Tx

More Historic Weather Station data

Upgrade to MSW Pro to gain access to the past 30 days of data for over 8000 Wavebouys and Weather Stations around the globe.

Join Pro

Comparision Forecast

View Surf forecast
   
Mon 12/05 10:00am 16 20 mph 1010.3mb 51f
9:00am 21 24 mph 1009.8mb 51f
8:00am 18 22 mph 1010.3mb 50f
7:00am 15 17 mph 1011mb 51f
6:00am 15 20 mph 1011.2mb 50f
5:00am 15 18 mph 1011.2mb 51f
4:00am 14 17 mph 1011.3mb 51f
3:00am 16 21 mph 1011.4mb 51f
2:00am 18 22 mph 1012.2mb 52f
1:00am 14 18 mph 1013.1mb 52f
12:00am 18 23 mph 1013.2mb 52f
Sun 12/04 11:00pm 15 20 mph 1014.7mb 53f
10:00pm 20 24 mph 1015.1mb 52f
9:00pm 15 18 mph 1015.4mb 53f
8:00pm 13 16 mph 1014.7mb 54f
7:00pm 14 17 mph 1014.4mb 53f
6:00pm 18 23 mph 1013.6mb 54f
5:00pm 16 20 mph 1013.9mb 53f
4:00pm 9 11 mph 1013.7mb 54f
3:00pm 13 15 mph 1013.7mb 53f
2:00pm 14 21 mph 1013mb 53f
1:00pm 14 15 mph 1014.3mb 53f
12:00pm 9 11 mph 1014.5mb 54f
11:00am 14 17 mph 1014.6mb 54f
10:00am 10 14 mph 1015.4mb 53f
9:00am 9 11 mph 1015mb 52f
8:00am 13 16 mph 1014.3mb 52f
7:00am 13 15 mph 1014mb 53f
6:00am 6 8 mph 1011.2mb 54f
5:00am 11 15 mph 1011.4mb 53f
4:00am 14 16 mph 1012.2mb 53f
3:00am 13 16 mph 1014mb 53f
2:00am 8 10 mph 1012.1mb 54f
1:00am 3 5 mph 1011.2mb 55f
12:00am 7 9 mph 1010.8mb 55f
Sat 12/03 11:00pm 5 6 mph 1011mb 54f
10:00pm 10 13 mph 1012.3mb 54f
9:00pm 9 11 mph 1012.6mb 54f
8:00pm 13 16 mph 1012mb 55f
7:00pm 14 17 mph 1010.6mb 56f
6:00pm 11 15 mph 1011.5mb 56f
5:00pm 16 20 mph 1010.8mb 56f
4:00pm 15 18 mph 1009.6mb 55f
3:00pm 20 22 mph 1010.7mb 56f
2:00pm 17 21 mph 1010.9mb 55f
1:00pm 24 29 mph 1012mb -
12:00pm 15 17 mph 1011.7mb 69f
11:00am 3 5 mph 1013mb 66f
10:00am 24 28 mph 1012.3mb 64f
9:00am 20 24 mph 1013.8mb 62f
8:00am 2 5 mph 1014.2mb 59f
7:00am 25 32 mph 1012.9mb 58f
6:00am 26 32 mph 1012.6mb 57f
5:00am 17 21 mph 1014mb 55f
4:00am 13 17 mph 1014.8mb 58f
3:00am 17 22 mph 1014.7mb 59f
2:00am 23 30 mph 1015.3mb 58f
1:00am 18 23 mph 1015.8mb 60f
12:00am 18 23 mph 1016.7mb 58f
Fri 12/02 11:00pm 21 26 mph 1017.6mb 57f
10:00pm 21 26 mph 1018mb 57f
9:00pm 17 22 mph 1018.3mb 56f
8:00pm 17 24 mph 1018.3mb 56f
7:00pm 18 23 mph 1018.3mb 55f
6:00pm 17 21 mph 1019mb 56f
5:00pm 14 16 mph 1019.1mb 57f
4:00pm 13 17 mph 1019.2mb 57f
3:00pm 11 14 mph 1019.3mb 57f
2:00pm 9 11 mph 1019.5mb 62f
1:00pm 13 16 mph 1019.1mb 62f
12:00pm 16 21 mph 1019.8mb 62f
11:00am 17 21 mph 1020.5mb 62f
10:00am 11 15 mph 1020.9mb 59f
9:00am 11 14 mph 1021mb 59f
8:00am 11 15 mph 1020.6mb 56f
7:00am 8 10 mph 1020.6mb 54f
6:00am 9 13 mph 1020.2mb 55f
5:00am 10 13 mph 1019.7mb 55f
4:00am 9 11 mph 1019.7mb 55f
3:00am 9 11 mph 1019.3mb 55f
2:00am 8 10 mph 1019.6mb 55f
1:00am 7 8 mph 1019.8mb 52f
12:00am 7 8 mph 1019.6mb 52f
Thu 12/01 11:00pm 8
mph
1019.6mb 53f
10:00pm 8 9 mph 1019.9mb 53f
9:00pm 7 8 mph 1019.5mb 55f
8:00pm 6 7 mph 1019.5mb 55f
7:00pm 6 7 mph 1019.5mb 57f